createdAt,value
2022-08-26T06:33:40.499Z,101414.38
2022-08-26T06:36:27.574Z,101407.75
2022-08-26T06:39:07.901Z,101411.31
2022-08-26T06:41:46.632Z,101411.97
2022-08-26T06:44:27.260Z,101408.88
2022-08-26T06:47:04.400Z,101417.88
2022-08-26T06:49:41.387Z,101413.41
2022-08-26T06:52:24.387Z,101407.03
2022-08-26T06:55:01.407Z,101413.75
2022-08-26T06:57:41.105Z,101405.91
2022-08-26T07:00:21.788Z,101411.59
2022-08-26T07:02:59.300Z,101402.03
2022-08-26T07:05:37.808Z,101402.53
2022-08-26T07:08:17.820Z,101396.53
2022-08-26T07:10:56.788Z,101399.88
2022-08-26T07:13:38.157Z,101395.75
2022-08-26T07:16:18.077Z,101399.09
2022-08-26T07:18:56.688Z,101405.84
2022-08-26T07:21:34.385Z,101395.66
2022-08-26T07:24:15.038Z,101392.56
2022-08-26T07:26:51.861Z,101395.28
2022-08-26T07:29:30.537Z,101388.41
2022-08-26T07:32:08.968Z,101393.00
2022-08-26T07:34:47.558Z,101384.00
2022-08-26T07:37:25.089Z,101382.97
2022-08-26T07:40:07.291Z,101375.31
2022-08-26T07:42:46.136Z,101387.63
2022-08-26T07:45:23.437Z,101385.59
2022-08-26T07:48:00.337Z,101382.97
2022-08-26T07:50:50.105Z,101385.75
2022-08-26T07:53:27.932Z,101379.94
2022-08-26T07:56:08.998Z,101382.06
2022-08-26T07:58:51.479Z,101382.13
2022-08-26T08:01:32.017Z,101374.22
2022-08-26T08:04:11.558Z,101378.91
2022-08-26T08:06:51.347Z,101371.00
2022-08-26T08:09:29.117Z,101382.78
2022-08-26T08:12:13.977Z,101383.28
2022-08-26T08:14:51.816Z,101379.13
2022-08-26T08:17:29.015Z,101381.03
2022-08-26T08:20:07.260Z,101387.41
2022-08-26T08:22:45.778Z,101375.97
2022-08-26T08:25:25.233Z,101371.59
2022-08-26T08:28:05.013Z,101376.88
2022-08-26T08:30:43.401Z,101376.50
2022-08-26T08:33:20.549Z,101365.19
2022-08-26T08:35:57.570Z,101365.44
2022-08-26T08:38:34.753Z,101364.03
2022-08-26T08:41:25.025Z,101376.63
